Flight Track Log - Related Links

Times and Time Zones

All times are in EDT time to prevent confusion due to time zone crossing. See the UAL33 flight status page for this flight to view local times or setup timezone preferences in your user account.

Time Position Orientation Groundspeed Altitude Reporting Facility
EDT Latitude Longitude Course Direction KTS MPH feet Rate Location/Type
Thu 09:56:12 PM 41.9820 -87.9180 North 26 30  Level FlightAware ADS-B
Thu 09:56:36 PM 41.9830 -87.9180 360° North 30 35 188 Level FlightAware ADS-B
Thu 09:57:08 PM 41.9850 -87.9180 360° North 17 20 192 Level FlightAware ADS-B
Thu 09:57:16 PM 41.9860 -87.9180 360° North 34 39 199 Level FlightAware ADS-B
Thu 09:57:34 PM 41.9870 -87.9180 360° North 25 29 200 Level FlightAware ADS-B
Thu 09:57:49 PM 41.9870 -87.9170 90° East 29 33 204 Level FlightAware ADS-B
Thu 09:58:17 PM 41.9870 -87.9130 90° East 29 33 208 Level FlightAware ADS-B
Thu 09:58:29 PM 41.9870 -87.9150 270° West 24 28 215 Level FlightAware ADS-B
Thu 09:59:25 PM 41.9900 -87.9150 360° North 24 28 218 Level FlightAware ADS-B
Thu 09:59:39 PM 41.9900 -87.9140 90° East 31 36 233 Level FlightAware ADS-B
Thu 10:02:00 PM 41.7736 -88.0738 194° South  Level Estimated
Thu 10:03:00 PM 41.6815 -88.1415 187° South  Level Estimated
Thu 10:04:00 PM 41.5893 -88.2090 189° South  Level Estimated
Thu 10:05:00 PM 41.4970 -88.2763 180° South  Level Estimated
Thu 10:06:00 PM 41.4048 -88.3435 189° South  Level Estimated
Thu 10:07:00 PM 41.3125 -88.4104 190° South  Level Estimated
Thu 10:08:00 PM 41.2369 -88.3132 136° Southeast  Level FlightAware Approximate
Thu 10:09:00 PM 41.1450 -88.3809 193° South  Level Estimated
Thu 10:10:00 PM 41.0524 -88.3150 152° Southeast  Level FlightAware Approximate
Thu 10:11:00 PM 40.9609 -88.3834 192° South  Level Estimated
Thu 10:12:00 PM 40.8693 -88.4516 191° South  Level Estimated
Thu 10:12:44 PM 41.9420 -87.8540 147° Southeast 242 278 3,100  Level FlightAware ADS-B
Thu 10:13:27 PM 41.8880 -87.8630 187° South 294 338 4,800 1,859 Climbing FlightAware ADS-B
Thu 10:13:55 PM 41.8520 -87.8730 192° South 299 344 5,300 2,036 Climbing FlightAware ADS-B
Thu 10:14:23 PM 41.8130 -87.8850 193° South 298 343 6,700 3,579 Climbing FlightAware ADS-B
Thu 10:14:52 PM 41.7750 -87.8970 193° South 301 346 8,700 4,095 Climbing FlightAware ADS-B
Thu 10:15:26 PM 41.7280 -87.9140 195° South 309 356 11,000 3,722 Climbing FlightAware ADS-B
Thu 10:16:11 PM 41.6630 -87.9380 195° South 335 386 13,600 2,331 Climbing FlightAware ADS-B
Thu 10:17:45 PM 41.4980 -87.9970 195° South 454 522 16,400 2,152 Climbing FlightAware ADS-B
Thu 10:18:36 PM 41.3900 -88.0350 195° South 476 548 18,800 2,637 Climbing FlightAware ADS-B
Thu 10:19:16 PM 41.3040 -88.0650 195° South 493 567 20,400 2,416 Climbing FlightAware ADS-B
Thu 10:19:53 PM 41.2180 -88.0940 194° South 510 587 21,900 1,923 Climbing FlightAware ADS-B
Thu 10:20:34 PM 41.1210 -88.1210 192° South 536 617 22,900 2,022 Climbing FlightAware ADS-B
Thu 10:21:25 PM 40.9950 -88.1560 192° South 542 624 25,000 2,176 Climbing FlightAware ADS-B
Thu 10:22:05 PM 40.8960 -88.1840 192° South 553 636 26,200 1,735 Climbing FlightAware ADS-B
Thu 10:22:48 PM 40.7960 -88.2130 192° South 561 646 27,400 2,122 Climbing FlightAware ADS-B
Thu 10:23:27 PM 40.6900 -88.2430 192° South 549 632 29,100 2,416 Climbing FlightAware ADS-B
Thu 10:24:05 PM 40.5950 -88.2700 192° South 546 628 30,500 2,138 Climbing FlightAware ADS-B
Thu 10:24:54 PM 40.4790 -88.3030 192° South 542 624 32,200 2,214 Climbing FlightAware ADS-B
Thu 10:25:29 PM 40.3920 -88.3270 192° South 538 619 33,600 2,129 Climbing FlightAware ADS-B
Thu 10:26:27 PM 40.2610 -88.3900 200° South 513 590 35,500 1,707 Climbing FlightAware ADS-B
Thu 10:27:25 PM 40.1380 -88.4810 209° Southwest 517 595 36,900 1,273 Climbing FlightAware ADS-B
Thu 10:28:06 PM 40.0540 -88.5440 210° Southwest 518 596 37,600 1,200 Climbing FlightAware ADS-B
Thu 10:28:50 PM 39.9630 -88.6110 209° Southwest 512 589 38,600 955 Climbing FlightAware ADS-B
Thu 10:29:34 PM 39.8710 -88.6780 209° Southwest 508 585 39,000 220 Climbing FlightAware ADS-B
Thu 10:30:39 PM 39.7380 -88.7750 209° Southwest 508 585 39,000  Level FlightAware ADS-B
Thu 10:31:24 PM 39.6460 -88.8420 209° Southwest 510 587 39,000  Level FlightAware ADS-B
Thu 10:32:07 PM 39.5590 -88.9060 210° Southwest 511 588 39,000  Level FlightAware ADS-B
Thu 10:32:48 PM 39.4760 -88.9660 209° Southwest 512 589 39,000  Level FlightAware ADS-B
Thu 10:33:29 PM 39.3880 -89.0300 209° Southwest 514 592 39,000  Level FlightAware ADS-B
Thu 10:34:11 PM 39.3040 -89.0900 209° Southwest 515 593 39,000  Level FlightAware ADS-B
Thu 10:34:53 PM 39.2160 -89.1540 209° Southwest 515 593 39,000  Level FlightAware ADS-B
Thu 10:35:39 PM 39.1180 -89.2240 209° Southwest 513 590 39,000  Level FlightAware ADS-B
Thu 10:36:17 PM 39.0380 -89.2810 209° Southwest 513 590 39,000  Level FlightAware ADS-B
Thu 10:36:55 PM 38.9630 -89.3340 209° Southwest 512 589 39,000  Level FlightAware ADS-B
Thu 10:37:40 PM 38.8670 -89.4030 209° Southwest 514 592 39,000  Level FlightAware ADS-B
Thu 10:38:27 PM 38.7700 -89.4720 209° Southwest 513 590 39,000  Level FlightAware ADS-B
Thu 10:39:01 PM 38.7010 -89.5210 209° Southwest 513 590 39,000  Level FlightAware ADS-B
Thu 10:39:48 PM 38.6030 -89.5900 209° Southwest 514 592 39,000  Level FlightAware ADS-B
Thu 10:40:26 PM 38.5220 -89.6460 208° Southwest 512 589 39,000  Level FlightAware ADS-B
Thu 10:41:12 PM 38.4360 -89.7070 209° Southwest 511 588 39,000  Level FlightAware ADS-B
Thu 10:41:55 PM 38.3400 -89.7740 209° Southwest 512 589 39,000  Level FlightAware ADS-B
Thu 10:42:36 PM 38.2520 -89.8350 209° Southwest 516 594 39,000  Level FlightAware ADS-B
Thu 10:43:20 PM 38.1600 -89.8990 209° Southwest 517 595 39,000  Level FlightAware ADS-B
Thu 10:44:01 PM 38.0720 -89.9600 209° Southwest 516 594 39,000  Level FlightAware ADS-B
Thu 10:44:42 PM 37.9870 -90.0190 209° Southwest 517 595 39,000  Level FlightAware ADS-B
Thu 10:44:52 PM 37.9660 -90.0330 208° Southwest 518 596 39,000  Level FlightAware ADS-B
Thu 10:48:03 PM 37.6470 -90.2480 208° Southwest 518 596 39,000  Level FlightAware ADS-B
Thu 10:48:50 PM 37.5620 -90.3050 208° Southwest 518 596 39,000  Level FlightAware ADS-B
Thu 10:49:38 PM 37.4760 -90.3630 208° Southwest 518 596 39,000  Level FlightAware ADS-B
Thu 10:50:13 PM 37.4130 -90.4050 208° Southwest 518 596 39,000 741 Level FlightAware ADS-B
Thu 10:50:59 PM 37.1920 -90.5590 209° Southwest 513 590 40,000 682 Climbing FlightAware ADS-B
Thu 10:51:41 PM 37.1040 -90.6180 208° Southwest 511 588 40,000  Level FlightAware ADS-B
Thu 10:52:21 PM 37.0210 -90.6730 208° Southwest 510 587 40,000  Level FlightAware ADS-B
Thu 10:53:05 PM 36.9300 -90.7330 208° Southwest 508 585 40,000  Level FlightAware ADS-B
Thu 10:53:45 PM 36.8480 -90.7880 208° Southwest 507 583 40,000  Level FlightAware ADS-B
Thu 10:54:27 PM 36.7600 -90.8460 208° Southwest 510 587 40,000  Level FlightAware ADS-B
Thu 10:55:33 PM 36.6210 -90.9380 208° Southwest 514 592 40,000  Level FlightAware ADS-B
Thu 10:56:43 PM 36.4740 -91.0340 208° Southwest 514 592 40,000  Level FlightAware ADS-B
Thu 10:57:29 PM 36.3770 -91.0970 208° Southwest 517 595 40,000  Level FlightAware ADS-B
Thu 10:58:11 PM 36.2880 -91.1550 208° Southwest 515 593 40,000  Level FlightAware ADS-B
Thu 10:58:57 PM 36.1930 -91.2170 208° Southwest 515 593 40,000  Level FlightAware ADS-B
Thu 10:59:34 PM 36.1240 -91.2610 207° Southwest 513 590 40,000  Level FlightAware ADS-B
Thu 10:59:58 PM 36.0800 -91.2890 207° Southwest 513 590 40,000  Level FlightAware ADS-B
Thu 11:03:15 PM 35.6490 -91.5680 208° Southwest 514 592 40,000  Level FlightAware ADS-B
Thu 11:04:02 PM 35.5590 -91.6240 207° Southwest 516 594 40,000  Level FlightAware ADS-B
Thu 11:04:58 PM 35.4320 -91.7050 207° Southwest 518 596 40,000  Level FlightAware ADS-B
Thu 11:05:35 PM 35.3650 -91.7470 207° Southwest 518 596 40,000  Level FlightAware ADS-B
Thu 11:06:21 PM 35.2820 -91.8000 208° Southwest 518 596 40,000  Level FlightAware ADS-B
Thu 11:06:58 PM 35.2140 -91.8410 206° Southwest 518 596 40,000  Level FlightAware ADS-B
Thu 11:07:43 PM 35.0750 -91.9320 208° Southwest 522 601 40,000  Level FlightAware ADS-B
Thu 11:08:20 PM 35.0070 -91.9740 207° Southwest 522 601 40,000  Level FlightAware ADS-B
Thu 11:09:09 PM 34.9170 -92.0300 207° Southwest 522 601 40,000  Level FlightAware ADS-B
Thu 11:09:46 PM 34.8500 -92.0720 207° Southwest 522 601 40,000  Level FlightAware ADS-B
Thu 11:11:00 PM 34.7140 -92.1560 207° Southwest 522 601 40,000  Level FlightAware ADS-B
Thu 11:11:41 PM 34.6390 -92.2020 207° Southwest 522 601 40,000  Level FlightAware ADS-B
Thu 11:12:25 PM 34.5590 -92.2520 207° Southwest 522 601 40,000  Level FlightAware ADS-B
Thu 11:13:01 PM 34.4930 -92.2930 207° Southwest 522 601 40,000  Level FlightAware ADS-B
Thu 11:13:48 PM 34.4070 -92.3460 207° Southwest 522 601 40,000  Level FlightAware ADS-B
Thu 11:14:23 PM 34.3430 -92.3860 207° Southwest 522 601 40,000  Level FlightAware ADS-B
Thu 11:15:23 PM 34.2330 -92.4530 207° Southwest 522 601 40,000  Level FlightAware ADS-B
Thu 11:16:24 PM 34.1220 -92.5220 207° Southwest 522 601 40,000  Level FlightAware ADS-B
Thu 11:17:01 PM 34.0540 -92.5640 207° Southwest 522 601 40,000  Level FlightAware ADS-B
Thu 11:17:31 PM 33.7378 -92.3583 207° Southwest 503 579 40,000  Level Fort Worth Center
Thu 11:18:31 PM 33.5967 -92.3814 188° South 503 579 40,000  Level Fort Worth Center
Thu 11:19:31 PM 33.4600 -92.4067 189° South 503 579 40,000  Level Fort Worth Center
Thu 11:20:31 PM 33.3253 -92.4317 189° South 498 573 40,000  Level Fort Worth Center
Thu 11:21:31 PM 33.1844 -92.4569 189° South 504 580 40,000  Level Fort Worth Center
Thu 11:27:08 PM 32.3764 -92.6050 189° South 524 603 40,000  Level FlightAware ADS-B
Thu 11:28:30 PM 32.1820 -92.6398 189° South 523 602 40,000  Level FlightAware ADS-B
Thu 11:29:21 PM 32.0607 -92.6616 189° South 520 598 40,000  Level FlightAware ADS-B
Thu 11:29:46 PM 31.9999 -92.6766 192° South 525 604 40,000  Level FlightAware ADS-B
Thu 11:33:34 PM 31.5577 -93.0791 218° Southwest 532 612 40,000  Level FlightAware ADS-B
Thu 11:34:08 PM 31.4945 -93.1437 221° Southwest 533 613 40,000  Level FlightAware ADS-B
Thu 11:34:13 PM 31.4859 -93.1533 224° Southwest 535 616 40,000  Level FlightAware ADS-B
Thu 11:34:57 PM 31.4111 -93.2449 226° Southwest 535 616 40,000  Level FlightAware ADS-B
Thu 11:35:29 PM 31.3572 -93.3121 227° Southwest 536 617 40,000  Level FlightAware ADS-B
Thu 11:36:00 PM 31.3032 -93.3794 227° Southwest 537 618 40,000  Level FlightAware ADS-B
Thu 11:36:31 PM 31.2521 -93.4432 227° Southwest 533 613 40,000 -393 Level FlightAware ADS-B
Thu 11:37:01 PM 31.2021 -93.5053 227° Southwest 521 600 39,600 -1,600 Descending FlightAware ADS-B
Thu 11:37:31 PM 31.1524 -93.5670 227° Southwest 516 594 38,400 -2,800 Descending FlightAware ADS-B
Thu 11:38:01 PM 31.1026 -93.6287 227° Southwest 517 595 36,800 -3,148 Descending FlightAware ADS-B
Thu 11:38:32 PM 31.0523 -93.6911 227° Southwest 514 592 35,200 -3,387 Descending FlightAware ADS-B
Thu 11:39:03 PM 31.0018 -93.7530 226° Southwest 516 594 33,300 -3,934 Descending FlightAware ADS-B
Thu 11:39:33 PM 30.9519 -93.8143 227° Southwest 525 604 31,200 -3,800 Descending FlightAware ADS-B
Thu 11:40:03 PM 30.9022 -93.8757 227° Southwest 521 600 29,500 -4,000 Descending FlightAware ADS-B
Thu 11:40:33 PM 30.8515 -93.9379 226° Southwest 528 608 27,200 -3,738 Descending FlightAware ADS-B
Thu 11:41:04 PM 30.7998 -94.0018 227° Southwest 519 597 25,700 -2,806 Descending FlightAware ADS-B
Thu 11:41:35 PM 30.7508 -94.0617 226° Southwest 502 578 24,300 -2,852 Descending FlightAware ADS-B
Thu 11:42:05 PM 30.7030 -94.1203 227° Southwest 487 560 22,800 -3,148 Descending FlightAware ADS-B
Thu 11:42:36 PM 30.6548 -94.1791 226° Southwest 482 555 21,100 -3,246 Descending FlightAware ADS-B
Thu 11:43:06 PM 30.6091 -94.2351 227° Southwest 471 542 19,500 -3,049 Descending FlightAware ADS-B
Thu 11:43:37 PM 30.5637 -94.2905 226° Southwest 460 529 18,000 -2,951 Descending FlightAware ADS-B
Thu 11:44:07 PM 30.5196 -94.3438 226° Southwest 453 521 16,500 -2,754 Descending FlightAware ADS-B
Thu 11:44:38 PM 30.4763 -94.3964 226° Southwest 437 503 15,200 -2,557 Descending FlightAware ADS-B
Thu 11:45:08 PM 30.4352 -94.4462 226° Southwest 422 486 13,900 -2,700 Descending FlightAware ADS-B
Thu 11:45:38 PM 30.3948 -94.4951 226° Southwest 414 476 12,500 -2,600 Descending FlightAware ADS-B
Thu 11:46:08 PM 30.3552 -94.5428 226° Southwest 402 463 11,300 -1,667 Descending FlightAware ADS-B
Thu 11:47:08 PM 30.2813 -94.6321 226° Southwest 362 417 10,000 -1,026 Descending FlightAware ADS-B
Thu 11:47:24 PM 30.2642 -94.6528 226° Southwest 343 395 10,000 -405 Level FlightAware ADS-B
Thu 11:48:22 PM 30.2055 -94.7234 226° Southwest 297 342 9,500 -740 Descending FlightAware ADS-B
Thu 11:48:37 PM 30.1911 -94.7408 226° Southwest 296 341 9,100 -1,355 Descending FlightAware ADS-B
Thu 11:49:55 PM 30.1189 -94.8274 226° Southwest 281 323 7,400 -1,357 Descending FlightAware ADS-B
Thu 11:50:32 PM 30.0861 -94.8668 226° Southwest 275 316 6,500 -1,361 Descending FlightAware ADS-B
Thu 11:51:32 PM 30.0338 -94.9294 226° Southwest 269 310 5,200 -1,280 Descending FlightAware ADS-B
Thu 11:51:47 PM 30.0206 -94.9451 226° Southwest 267 307 4,900 -1,154 Descending FlightAware ADS-B
Thu 11:51:58 PM 30.0116 -94.9561 227° Southwest 266 306 4,700 -1,200 Descending FlightAware ADS-B
Thu 11:52:02 PM 30.0082 -94.9605 228° Southwest 266 306 4,600 -2,250 Descending FlightAware ADS-B
Thu 11:52:06 PM 30.0054 -94.9649 234° Southwest 266 306 4,400 -1,714 Descending FlightAware ADS-B
Thu 11:52:09 PM 30.0033 -94.9687 237° Southwest 266 306 4,400 -857 Level FlightAware ADS-B
Thu 11:52:13 PM 30.0009 -94.9736 241° Southwest 266 306 4,300 -800 Descending FlightAware ADS-B
Thu 11:52:39 PM 29.9874 -95.0074 246° West 258 297 4,000 -514 Descending FlightAware ADS-B
Thu 11:52:48 PM 29.9833 -95.0183 247° West 251 289 4,000 -429 Level FlightAware ADS-B
Thu 11:52:53 PM 29.9813 -95.0245 250° West 247 284 3,900 -1,000 Descending FlightAware ADS-B
Thu 11:53:00 PM 29.9791 -95.0336 257° West 245 282 3,800 -545 Descending FlightAware ADS-B
Thu 11:53:04 PM 29.9783 -95.0384 259° West 243 280 3,800  Level FlightAware ADS-B
Thu 11:53:08 PM 29.9777 -95.0435 262° West 241 277 3,800 -750 Level FlightAware ADS-B
Thu 11:53:12 PM 29.9773 -95.0489 265° West 239 275 3,700 -1,200 Descending FlightAware ADS-B
Thu 11:53:18 PM 29.9770 -95.0559 267° West 236 272 3,600 -750 Descending FlightAware ADS-B
Thu 11:53:28 PM 29.9768 -95.0686 269° West 232 267 3,500 -545 Descending FlightAware ADS-B
Thu 11:53:40 PM 29.9770 -95.0829 271° West 225 259 3,400 -667 Descending FlightAware ADS-B
Thu 11:53:55 PM 29.9772 -95.1005 271° West 216 249 3,200 -667 Descending FlightAware ADS-B
Thu 11:54:07 PM 29.9774 -95.1144 271° West 210 242 3,100 -667 Descending FlightAware ADS-B
Thu 11:54:22 PM 29.9776 -95.1309 271° West 203 234 2,900 -1,000 Descending FlightAware ADS-B
Thu 11:54:31 PM 29.9776 -95.1407 270° West 197 227 2,700 -960 Descending FlightAware ADS-B
Thu 11:54:47 PM 29.9776 -95.1565 270° West 190 219 2,500 -968 Descending FlightAware ADS-B
Thu 11:55:02 PM 29.9776 -95.1715 270° West 184 212 2,200 -1,000 Descending FlightAware ADS-B
Thu 11:55:17 PM 29.9776 -95.1857 270° West 173 199 2,000 -909 Descending FlightAware ADS-B
Thu 11:55:35 PM 29.9776 -95.2016 270° West 166 191 1,700 -909 Descending FlightAware ADS-B
Thu 11:55:50 PM 29.9776 -95.2136 270° West 140 161 1,500 -581 Descending FlightAware ADS-B
Thu 11:56:06 PM 29.9776 -95.2249 270° West 132 152 1,400 -563 Descending FlightAware ADS-B
Thu 11:56:22 PM 29.9776 -95.2357 270° West 133 153 1,200 -783 Descending FlightAware ADS-B
Thu 11:56:29 PM 29.9776 -95.2410 270° West 133 153 1,100 -783 Descending FlightAware ADS-B
Thu 11:56:45 PM 29.9777 -95.2521 271° West 134 154 900 -783 Descending FlightAware ADS-B
Thu 11:56:52 PM 29.9777 -95.2571 270° West 135 155 800 -857 Descending FlightAware ADS-B
Thu 11:56:59 PM 29.9778 -95.2624 271° West 135 155 700 -545 Descending FlightAware ADS-B
Thu 11:57:14 PM 29.9777 -95.2732 269° West 135 155 600 -581 Descending FlightAware ADS-B
Thu 11:57:30 PM 29.9775 -95.2847 269° West 137 158 400 -900 Descending FlightAware ADS-B
Thu 11:57:34 PM 29.9775 -95.2876 270° West 137 158 300 -632 Descending FlightAware ADS-B
Thu 11:57:49 PM 29.9776 -95.2989 271° West 137 158 200 -400 Descending FlightAware ADS-B

Login

Don't have an account? Register now (free) for customized features, flight alerts, and more!